Time;durP1;ratioP1;P1;durP2;ratioP2;P2;SDS_P1;SDS_P2;PMS_P1;PMS_P2;Temp;Humidity;BMP_temperature;BMP_pressure;BME280_temperature;BME280_humidity;BME280_pressure;Samples;Min_cycle;Max_cycle;Signal;HPM_P1;HPM_P2
2021/07/29 00:00:55;;;;;;;;;;;15.90;99.90;;;;;;5122809;27;20267;-77
2021/07/29 00:03:21;;;;;;;6.10;4.00;;;15.80;99.90;;;;;;5128682;27;19915;-79
2021/07/29 00:05:49;;;;;;;6.00;3.80;;;15.80;99.90;;;;;;5129247;27;20045;-79
2021/07/29 00:08:19;;;;;;;6.97;3.90;;;15.70;99.90;;;;;;5129018;27;20043;-80
2021/07/29 00:10:46;;;;;;;9.77;3.65;;;15.70;99.90;;;;;;5118649;27;20448;-78
2021/07/29 00:13:15;;;;;;;7.05;3.88;;;15.70;99.90;;;;;;5122589;27;20541;-80
2021/07/29 00:15:40;;;;;;;5.82;3.60;;;15.70;99.90;;;;;;5125332;27;20028;-80
2021/07/29 00:20:35;;;;;;;6.55;3.85;;;15.60;99.90;;;;;;5115496;27;20035;-80
2021/07/29 00:23:02;;;;;;;11.68;4.28;;;15.50;99.90;;;;;;5119954;27;20047;-80
2021/07/29 00:25:28;;;;;;;9.43;4.40;;;15.50;99.90;;;;;;5120553;27;20035;-79
2021/07/29 00:27:54;;;;;;;;;;;15.40;99.90;;;;;;5133048;27;20028;-80
2021/07/29 00:30:21;;;;;;;9.77;4.47;;;15.30;99.90;;;;;;5128218;27;19921;-80
2021/07/29 00:32:47;;;;;;;8.90;4.22;;;15.20;99.90;;;;;;5117694;27;20043;-79
2021/07/29 00:35:14;;;;;;;9.95;4.63;;;15.10;99.90;;;;;;5129025;27;20035;-79
2021/07/29 00:37:49;;;;;;;6.65;4.00;;;15.10;99.90;;;;;;5133163;27;20118;-79
2021/07/29 00:40:24;;;;;;;7.65;4.05;;;15.00;99.90;;;;;;5123268;27;20035;-79
2021/07/29 00:42:50;;;;;;;10.32;4.88;;;14.90;99.90;;;;;;5132678;27;20053;-79
2021/07/29 00:45:15;;;;;;;6.25;4.28;;;15.00;99.90;;;;;;5125675;27;20039;-80
2021/07/29 00:47:42;;;;;;;7.30;4.40;;;14.90;99.90;;;;;;5126725;27;20038;-80
2021/07/29 00:50:13;;;;;;;6.85;4.25;;;14.90;99.90;;;;;;5133702;27;20087;-80
2021/07/29 00:52:40;;;;;;;8.35;4.50;;;14.90;99.90;;;;;;5128492;27;20511;-81
2021/07/29 00:55:07;;;;;;;7.00;4.50;;;15.00;99.90;;;;;;5122091;27;20042;-80
2021/07/29 00:57:36;;;;;;;8.48;4.65;;;14.90;99.90;;;;;;5131133;27;20040;-80
2021/07/29 01:00:03;;;;;;;9.45;4.68;;;15.00;99.90;;;;;;5132935;27;20373;-80
2021/07/29 01:02:29;;;;;;;6.88;4.45;;;15.00;99.90;;;;;;5132458;27;20035;-80
2021/07/29 01:04:55;;;;;;;7.38;4.43;;;15.10;99.90;;;;;;5123204;27;20499;-80
2021/07/29 01:07:21;;;;;;;8.65;4.97;;;15.10;99.90;;;;;;5138517;27;20451;-80
2021/07/29 01:09:47;;;;;;;7.15;4.70;;;15.10;99.90;;;;;;5131386;27;20039;-81
2021/07/29 01:12:12;;;;;;;;;;;15.00;99.90;;;;;;5128103;27;20499;-80
2021/07/29 01:14:40;;;;;;;10.25;5.30;;;14.90;99.90;;;;;;5133308;27;19924;-80
2021/07/29 01:17:06;;;;;;;7.82;5.10;;;14.80;99.90;;;;;;5132456;27;20035;-81
2021/07/29 01:19:31;;;;;;;;;;;14.70;99.90;;;;;;5131827;27;20042;-81
2021/07/29 01:21:58;;;;;;;11.23;5.50;;;14.70;99.90;;;;;;5129914;27;20466;-80
2021/07/29 01:24:25;;;;;;;9.25;5.50;;;14.60;99.90;;;;;;5124290;27;20477;-81
2021/07/29 01:26:51;;;;;;;7.82;5.20;;;14.60;99.90;;;;;;5127065;27;20036;-81
2021/07/29 01:29:18;;;;;;;8.57;5.15;;;14.60;99.90;;;;;;5132612;27;20035;-79
2021/07/29 01:31:43;;;;;;;8.40;5.82;;;14.60;99.90;;;;;;5127620;27;20042;-78
2021/07/29 01:34:09;;;;;;;8.63;5.50;;;14.60;99.90;;;;;;5120675;27;20126;-81
2021/07/29 01:36:35;;;;;;;8.65;5.80;;;14.50;99.90;;;;;;5123950;27;20039;-80
2021/07/29 01:39:01;;;;;;;11.27;5.10;;;14.50;99.90;;;;;;5130972;27;20103;-79
2021/07/29 01:41:27;;;;;;;8.93;4.78;;;14.40;99.90;;;;;;5129511;27;20047;-80
2021/07/29 01:43:53;;;;;;;7.25;3.90;;;14.40;99.90;;;;;;5122171;27;20027;-81
2021/07/29 01:46:19;;;;;;;6.20;3.90;;;14.30;99.90;;;;;;5128128;27;20031;-80
2021/07/29 01:48:45;;;;;;;;;;;14.20;99.90;;;;;;5122375;27;20031;-82
2021/07/29 01:51:11;;;;;;;7.07;3.10;;;14.00;99.90;;;;;;5125645;27;19915;-82
2021/07/29 01:53:36;;;;;;;7.25;3.63;;;13.90;99.90;;;;;;5126019;27;20046;-82
2021/07/29 01:56:06;;;;;;;5.90;2.83;;;13.80;99.90;;;;;;5111961;27;20039;-82
2021/07/29 01:58:32;;;;;;;6.75;3.35;;;13.70;99.90;;;;;;5131463;27;20059;-81
2021/07/29 02:00:57;;;;;;;4.85;2.83;;;13.70;99.90;;;;;;5130109;27;20250;-81
2021/07/29 02:03:23;;;;;;;8.02;3.45;;;13.60;99.90;;;;;;5129461;27;20056;-81
2021/07/29 02:05:49;;;;;;;4.45;3.00;;;13.60;99.90;;;;;;5127842;27;20035;-81
2021/07/29 02:08:15;;;;;;;5.38;3.00;;;13.50;99.90;;;;;;5129844;27;20437;-81
2021/07/29 02:10:40;;;;;;;4.28;3.00;;;13.50;99.90;;;;;;5130125;27;20035;-79
2021/07/29 02:13:06;;;;;;;8.15;3.78;;;13.40;99.90;;;;;;5127925;28;20081;-81
2021/07/29 02:15:34;;;;;;;7.07;3.78;;;13.40;99.90;;;;;;5130259;28;20035;-81
2021/07/29 02:18:02;;;;;;;8.23;3.90;;;13.40;99.90;;;;;;5131131;28;20056;-81
2021/07/29 02:20:29;;;;;;;6.88;3.70;;;13.40;99.90;;;;;;5117237;28;20532;-81
2021/07/29 02:22:55;;;;;;;8.40;4.43;;;13.40;99.90;;;;;;5129736;28;20035;-81
2021/07/29 02:25:20;;;;;;;8.65;4.93;;;13.40;99.90;;;;;;5121784;27;20396;-80
2021/07/29 02:27:46;;;;;;;9.32;5.40;;;13.40;99.90;;;;;;5131047;27;20049;-81
2021/07/29 02:30:13;;;;;;;8.57;5.22;;;13.50;99.90;;;;;;5127842;27;20111;-81
2021/07/29 02:32:40;;;;;;;10.50;5.30;;;13.60;99.90;;;;;;5110852;27;20387;-80
2021/07/29 02:35:06;;;;;;;10.02;5.40;;;13.60;99.90;;;;;;5125559;28;20400;-81
2021/07/29 02:37:33;;;;;;;11.00;5.95;;;13.70;99.90;;;;;;5131910;27;20492;-81
2021/07/29 02:39:58;;;;;;;9.43;4.85;;;13.70;99.90;;;;;;5125991;27;20528;-82
2021/07/29 02:42:24;;;;;;;11.27;5.32;;;13.80;99.90;;;;;;5122468;28;20130;-82
2021/07/29 02:44:50;;;;;;;7.68;3.95;;;13.80;99.90;;;;;;5115461;27;20039;-83
2021/07/29 02:47:26;;;;;;;11.45;4.28;;;13.80;99.90;;;;;;5135111;27;20070;-82
2021/07/29 02:49:51;;;;;;;;;;;13.80;99.90;;;;;;5132856;27;20059;-82
2021/07/29 02:52:17;;;;;;;4.90;2.70;;;13.80;99.90;;;;;;5129717;27;19951;-83
2021/07/29 02:54:44;;;;;;;3.55;2.20;;;13.70;99.90;;;;;;5109697;27;20035;-84
2021/07/29 02:57:10;;;;;;;4.97;2.00;;;13.60;99.90;;;;;;5133862;27;20031;-83
2021/07/29 02:59:35;;;;;;;3.17;1.80;;;13.50;99.90;;;;;;5133832;27;20062;-83
2021/07/29 03:02:01;;;;;;;3.15;1.70;;;13.40;99.90;;;;;;5134557;27;20468;-83
2021/07/29 03:04:27;;;;;;;4.70;2.10;;;13.20;99.90;;;;;;5130633;27;20035;-82
2021/07/29 03:06:54;;;;;;;2.90;1.90;;;13.10;99.90;;;;;;5134220;27;20100;-82
2021/07/29 03:09:20;;;;;;;4.32;2.00;;;13.00;99.90;;;;;;5128468;27;20072;-82
2021/07/29 03:11:46;;;;;;;3.28;1.70;;;13.00;99.90;;;;;;5134079;27;20073;-82
2021/07/29 03:14:13;;;;;;;;;;;12.90;99.90;;;;;;5133174;27;20039;-83
2021/07/29 03:16:42;;;;;;;2.88;1.70;;;12.80;99.90;;;;;;5135631;27;19926;-82
2021/07/29 03:19:07;;;;;;;3.08;1.80;;;12.80;99.90;;;;;;5113315;27;20036;-80
2021/07/29 03:21:33;;;;;;;5.28;1.80;;;12.70;99.90;;;;;;5127327;27;20476;-81
2021/07/29 03:23:59;;;;;;;2.58;1.80;;;12.60;99.90;;;;;;5129182;27;20043;-81
2021/07/29 03:26:26;;;;;;;3.50;1.48;;;12.60;99.90;;;;;;5126365;27;20039;-82
2021/07/29 03:28:53;;;;;;;3.33;1.90;;;12.40;99.90;;;;;;5133773;27;20114;-81
2021/07/29 03:31:19;;;;;;;3.50;1.80;;;12.40;99.90;;;;;;5135240;27;20035;-82
2021/07/29 03:33:45;;;;;;;3.92;1.77;;;12.40;99.90;;;;;;5122277;27;20038;-81
2021/07/29 03:36:11;;;;;;;3.15;1.80;;;12.40;99.90;;;;;;5133903;27;20038;-81
2021/07/29 03:38:36;;;;;;;3.75;1.90;;;12.30;99.90;;;;;;5134175;27;20032;-82
2021/07/29 03:41:09;;;;;;;2.97;1.80;;;12.20;99.90;;;;;;5097013;27;20133;-81
2021/07/29 03:43:37;;;;;;;4.55;1.65;;;12.20;99.90;;;;;;5119180;27;20077;-80
2021/07/29 03:46:02;;;;;;;3.05;1.80;;;12.10;99.90;;;;;;5119755;27;20071;-80
2021/07/29 03:48:28;;;;;;;4.90;1.75;;;12.00;99.90;;;;;;5120661;27;20488;-80
2021/07/29 03:50:54;;;;;;;3.00;1.88;;;12.00;99.90;;;;;;5115211;27;20028;-81
2021/07/29 03:53:22;;;;;;;3.80;1.83;;;12.00;99.90;;;;;;5133894;27;20069;-82
2021/07/29 03:55:48;;;;;;;4.05;2.15;;;11.90;99.90;;;;;;5134670;27;20035;-81
2021/07/29 03:58:14;;;;;;;3.70;2.47;;;12.00;99.90;;;;;;5121612;27;20472;-81
2021/07/29 04:00:39;;;;;;;2.80;2.00;;;12.00;99.90;;;;;;5136580;27;20043;-81
2021/07/29 04:03:06;;;;;;;3.25;2.10;;;12.00;99.90;;;;;;5130591;27;20046;-81
2021/07/29 04:05:32;;;;;;;6.38;2.28;;;12.00;99.90;;;;;;5121694;27;20032;-81
2021/07/29 04:07:58;;;;;;;4.45;2.40;;;12.00;99.90;;;;;;5133025;27;20139;-82
2021/07/29 04:10:24;;;;;;;4.00;2.17;;;12.00;99.90;;;;;;5132225;27;20063;-81
2021/07/29 04:12:49;;;;;;;5.55;2.20;;;12.00;99.90;;;;;;5123528;27;20046;-80
2021/07/29 04:15:15;;;;;;;4.80;2.47;;;12.00;99.90;;;;;;5127133;27;20043;-83
2021/07/29 04:17:42;;;;;;;5.72;2.53;;;12.00;99.90;;;;;;5125531;27;20039;-81
2021/07/29 04:20:08;;;;;;;7.03;3.10;;;12.00;99.90;;;;;;5132711;27;20474;-79
2021/07/29 04:22:37;;;;;;;4.57;2.38;;;12.00;99.90;;;;;;5129329;27;20035;-80
2021/07/29 04:25:03;;;;;;;3.08;2.17;;;12.10;99.90;;;;;;5118016;27;20069;-79
2021/07/29 04:27:29;;;;;;;;;;;12.20;99.90;;;;;;5129145;27;20058;-80
2021/07/29 04:29:55;;;;;;;5.13;2.67;;;12.20;99.90;;;;;;5113540;27;19919;-80
2021/07/29 04:32:21;;;;;;;6.53;2.28;;;12.30;99.90;;;;;;5113770;27;20036;-80
2021/07/29 04:34:49;;;;;;;4.53;2.60;;;12.30;99.90;;;;;;5119234;27;20111;-80
2021/07/29 04:37:15;;;;;;;5.03;2.50;;;12.40;99.90;;;;;;5133126;27;20500;-80
2021/07/29 04:39:42;;;;;;;5.18;2.80;;;12.40;99.90;;;;;;5130947;27;20039;-79
2021/07/29 04:42:12;;;;;;;5.53;2.47;;;12.40;99.90;;;;;;5132299;27;20495;-79
2021/07/29 04:44:38;;;;;;;4.38;2.90;;;12.40;99.90;;;;;;5131178;27;20126;-80
2021/07/29 04:47:05;;;;;;;5.25;2.80;;;12.40;99.90;;;;;;5133031;27;20031;-80
2021/07/29 04:49:34;;;;;;;7.53;3.05;;;12.50;99.90;;;;;;5132024;27;20034;-81
2021/07/29 04:52:00;;;;;;;7.15;3.08;;;12.50;99.90;;;;;;5129341;27;20039;-81
2021/07/29 04:54:26;;;;;;;4.32;2.53;;;12.60;99.90;;;;;;5118331;27;20528;-79
2021/07/29 04:56:52;;;;;;;5.05;3.00;;;12.60;99.90;;;;;;5133558;27;20373;-80
2021/07/29 04:59:21;;;;;;;6.57;3.13;;;12.70;99.90;;;;;;5132456;27;20391;-80
2021/07/29 05:01:49;;;;;;;7.57;2.90;;;12.80;99.90;;;;;;5123292;27;20581;-81
2021/07/29 05:04:15;;;;;;;6.28;3.10;;;12.80;99.90;;;;;;5131970;27;20039;-80
2021/07/29 05:06:41;;;;;;;7.40;3.30;;;12.80;99.90;;;;;;5130614;27;20031;-80
2021/07/29 05:09:08;;;;;;;6.70;3.13;;;12.80;99.90;;;;;;5134312;27;20058;-79
2021/07/29 05:11:38;;;;;;;5.93;3.28;;;12.90;99.90;;;;;;5134988;27;20399;-80
2021/07/29 05:14:05;;;;;;;6.03;3.28;;;12.90;99.90;;;;;;5131984;27;20426;-81
2021/07/29 05:16:45;;;;;;;8.30;3.55;;;13.00;99.90;;;;;;5124742;27;20034;-80
2021/07/29 05:19:12;;;;;;;6.47;3.70;;;13.00;99.90;;;;;;5132182;27;20043;-80
2021/07/29 05:21:39;;;;;;;6.57;3.50;;;13.10;99.90;;;;;;5129521;27;20092;-79
2021/07/29 05:24:07;;;;;;;7.65;3.45;;;13.20;99.90;;;;;;5108932;27;20101;-79
2021/07/29 05:26:33;;;;;;;11.05;3.88;;;13.30;99.90;;;;;;5119634;27;20479;-81
2021/07/29 05:28:59;;;;;;;7.85;3.97;;;13.40;99.90;;;;;;5110640;28;20414;-79
2021/07/29 05:31:25;;;;;;;7.22;3.28;;;13.40;99.90;;;;;;5122840;27;20484;-82
2021/07/29 05:33:51;;;;;;;8.40;3.80;;;13.40;99.90;;;;;;5126744;27;20031;-80
2021/07/29 05:36:17;;;;;;;9.35;3.80;;;13.50;99.90;;;;;;5125304;27;20496;-81
2021/07/29 05:38:42;;;;;;;9.85;3.47;;;13.50;99.90;;;;;;5114766;27;20035;-80
2021/07/29 05:41:09;;;;;;;11.77;3.42;;;13.60;99.90;;;;;;5117864;27;20507;-79
2021/07/29 05:43:37;;;;;;;6.70;3.25;;;13.70;99.90;;;;;;5115181;27;20623;-81
2021/07/29 05:46:10;;;;;;;10.65;3.88;;;13.80;99.90;;;;;;5118549;27;20578;-80
2021/07/29 05:48:37;;;;;;;6.97;3.08;;;13.90;99.90;;;;;;5117342;27;20129;-80
2021/07/29 05:51:03;;;;;;;9.15;2.97;;;13.90;99.90;;;;;;5119456;27;20436;-81
2021/07/29 05:53:29;;;;;;;;;;;13.90;99.90;;;;;;5122772;27;20480;-79
2021/07/29 05:55:54;;;;;;;5.60;3.13;;;14.00;99.90;;;;;;5127519;27;19925;-81
2021/07/29 05:58:21;;;;;;;8.52;3.42;;;14.10;99.90;;;;;;5120674;27;20545;-79
2021/07/29 06:00:46;;;;;;;;;;;14.10;99.90;;;;;;5118637;27;20419;-83
2021/07/29 06:03:12;;;;;;;5.80;3.00;;;14.20;99.90;;;;;;5113357;27;19924;-81
2021/07/29 06:05:38;;;;;;;6.40;2.85;;;14.20;99.90;;;;;;5115872;27;20518;-79
2021/07/29 06:08:04;;;;;;;8.02;3.97;;;14.30;99.90;;;;;;5127508;27;20043;-79
2021/07/29 06:10:29;;;;;;;7.18;3.05;;;14.30;99.90;;;;;;5118232;27;20039;-81
2021/07/29 06:12:55;;;;;;;7.72;3.60;;;14.40;99.90;;;;;;5124069;27;20048;-80
2021/07/29 06:15:21;;;;;;;7.15;3.08;;;14.50;99.90;;;;;;5125284;28;20063;-81
2021/07/29 06:17:54;;;;;;;5.63;2.90;;;14.60;99.90;;;;;;5118849;28;20043;-80
2021/07/29 06:20:22;;;;;;;6.80;3.08;;;14.60;99.90;;;;;;5115800;27;20050;-82
2021/07/29 06:22:47;;;;;;;9.35;4.05;;;14.70;99.90;;;;;;5119073;27;20035;-80
2021/07/29 06:25:14;;;;;;;10.95;3.65;;;14.70;99.90;;;;;;5127654;27;20130;-79
2021/07/29 06:27:40;;;;;;;11.75;3.35;;;14.80;99.90;;;;;;5113646;27;20054;-80
2021/07/29 06:30:07;;;;;;;7.15;3.30;;;14.90;99.90;;;;;;5129325;27;20035;-81
2021/07/29 06:32:33;;;;;;;6.13;3.47;;;15.00;99.90;;;;;;5135988;27;20448;-80
2021/07/29 06:34:58;;;;;;;;;;;15.10;99.90;;;;;;5122319;27;20463;-81
2021/07/29 06:37:24;;;;;;;8.65;3.83;;;15.20;99.90;;;;;;5128868;27;19951;-79
2021/07/29 06:39:50;;;;;;;;;;;15.20;99.90;;;;;;5135974;27;20038;-79
2021/07/29 06:42:16;;;;;;;6.32;2.95;;;15.40;99.90;;;;;;5126249;27;19927;-79
2021/07/29 06:44:42;;;;;;;;;;;15.40;99.90;;;;;;5124649;27;20532;-80
2021/07/29 06:47:15;;;;;;;7.10;3.33;;;15.40;99.90;;;;;;5124215;27;20280;-81
2021/07/29 06:49:40;;;;;;;6.95;3.45;;;15.50;99.90;;;;;;5133170;27;20035;-81
2021/07/29 06:52:09;;;;;;;8.52;3.20;;;15.70;99.90;;;;;;5123637;27;20058;-81
2021/07/29 06:54:35;;;;;;;5.50;3.50;;;15.70;99.90;;;;;;5121903;27;20062;-82
2021/07/29 06:57:01;;;;;;;5.13;2.78;;;15.70;99.90;;;;;;5129586;27;20476;-82
2021/07/29 06:59:27;;;;;;;8.27;3.28;;;15.80;99.90;;;;;;5128365;27;20035;-80
2021/07/29 07:01:52;;;;;;;;;;;16.00;99.90;;;;;;5110681;27;20046;-80
2021/07/29 07:04:18;;;;;;;6.93;3.20;;;16.20;99.90;;;;;;5124153;27;20391;-79
2021/07/29 07:06:44;;;;;;;8.25;3.30;;;16.30;99.90;;;;;;5128746;27;20035;-79
2021/07/29 07:09:09;;;;;;;7.38;3.22;;;16.30;99.90;;;;;;5117542;27;20043;-80
2021/07/29 07:11:35;;;;;;;6.40;3.15;;;16.30;99.90;;;;;;5128065;27;20043;-81
2021/07/29 07:14:02;;;;;;;6.45;2.90;;;16.40;99.90;;;;;;5126569;27;20062;-79
2021/07/29 07:16:28;;;;;;;9.60;3.22;;;16.50;99.90;;;;;;5119814;27;20131;-79
2021/07/29 07:18:56;;;;;;;8.07;3.20;;;16.60;99.90;;;;;;5122495;27;20181;-79
2021/07/29 07:21:23;;;;;;;6.85;3.10;;;16.80;99.90;;;;;;5109962;27;20493;-81
2021/07/29 07:23:48;;;;;;;7.40;2.90;;;17.00;99.90;;;;;;5125835;27;20042;-79
2021/07/29 07:26:15;;;;;;;;;;;17.10;99.90;;;;;;5128869;27;20031;-82
2021/07/29 07:28:41;;;;;;;7.18;3.22;;;17.20;99.90;;;;;;5121765;27;19915;-80
2021/07/29 07:31:07;;;;;;;9.15;3.50;;;17.40;99.90;;;;;;5120141;27;20080;-79
2021/07/29 07:33:33;;;;;;;6.05;2.92;;;17.50;99.90;;;;;;5126891;27;20035;-77
2021/07/29 07:35:58;;;;;;;7.43;3.17;;;17.60;99.90;;;;;;5121061;27;20039;-76
2021/07/29 07:38:24;;;;;;;8.55;3.10;;;17.80;99.90;;;;;;5115023;27;20110;-78
2021/07/29 07:40:50;;;;;;;;;;;17.90;99.90;;;;;;5125105;27;20032;-78
2021/07/29 07:43:16;;;;;;;10.70;3.75;;;17.80;99.90;;;;;;5122150;27;20406;-78
2021/07/29 07:45:43;;;;;;;;;;;17.70;99.90;;;;;;5105063;27;20048;-77
2021/07/29 07:48:09;;;;;;;8.05;3.38;;;17.50;99.90;;;;;;5119606;27;19919;-77
2021/07/29 07:50:39;;;;;;;7.25;2.95;;;17.50;99.90;;;;;;5127948;27;20090;-77
2021/07/29 07:53:06;;;;;;;5.80;3.00;;;17.50;99.90;;;;;;5116899;27;20109;-76
2021/07/29 07:55:33;;;;;;;7.25;2.90;;;17.50;99.90;;;;;;5125379;27;20035;-78
2021/07/29 07:57:59;;;;;;;6.68;3.45;;;17.60;99.90;;;;;;5130543;27;20038;-78
2021/07/29 08:00:25;;;;;;;6.50;2.75;;;17.70;99.90;;;;;;5114913;27;20430;-77
2021/07/29 08:02:51;;;;;;;8.38;2.90;;;17.70;99.90;;;;;;5129148;27;20077;-77
2021/07/29 08:05:16;;;;;;;;;;;17.90;99.90;;;;;;5127176;27;20035;-77
2021/07/29 08:07:42;;;;;;;8.55;3.17;;;17.90;99.90;;;;;;5121701;27;19919;-78
2021/07/29 08:10:08;;;;;;;;;;;18.00;99.90;;;;;;5128636;27;20049;-78
2021/07/29 08:12:34;;;;;;;6.43;2.80;;;18.30;99.90;;;;;;5127430;27;19925;-77
2021/07/29 08:15:00;;;;;;;8.82;3.33;;;18.30;99.90;;;;;;5128733;27;20113;-77
2021/07/29 08:17:25;;;;;;;;;;;18.30;99.90;;;;;;5110742;27;20097;-77
2021/07/29 08:19:51;;;;;;;7.65;3.03;;;18.20;99.90;;;;;;5122056;27;20257;-77
2021/07/29 08:22:17;;;;;;;7.22;3.03;;;18.30;99.90;;;;;;5120063;27;20395;-78
2021/07/29 08:24:43;;;;;;;6.57;3.53;;;18.30;99.90;;;;;;5126134;27;20026;-77
2021/07/29 08:27:09;;;;;;;;;;;18.40;99.90;;;;;;5129716;27;20552;-77
2021/07/29 08:29:35;;;;;;;5.43;2.78;;;18.60;99.90;;;;;;5127071;27;20327;-78
2021/07/29 08:32:01;;;;;;;8.70;3.00;;;18.90;99.90;;;;;;5115506;27;20035;-76
2021/07/29 08:34:26;;;;;;;;;;;19.20;99.90;;;;;;5121561;27;20045;-78
2021/07/29 08:36:52;;;;;;;7.78;2.75;;;19.30;99.90;;;;;;5130799;27;19915;-76
2021/07/29 08:39:18;;;;;;;;;;;19.00;99.90;;;;;;5129550;27;20956;-78
2021/07/29 08:41:44;;;;;;;7.07;3.58;;;18.60;99.90;;;;;;5129840;27;20010;-79
2021/07/29 08:44:10;;;;;;;;;;;18.40;99.90;;;;;;5130859;27;20059;-77
2021/07/29 08:46:42;;;;;;;6.38;3.00;;;18.20;99.90;;;;;;5126468;27;20002;-76
2021/07/29 08:49:08;;;;;;;7.25;2.70;;;18.30;99.90;;;;;;5128293;27;20552;-77
2021/07/29 08:51:34;;;;;;;5.82;2.72;;;18.50;99.90;;;;;;5129510;27;20110;-76
2021/07/29 08:54:07;;;;;;;;;;;18.50;99.90;;;;;;5102316;28;20075;-76
2021/07/29 08:56:33;;;;;;;8.18;3.33;;;18.40;99.90;;;;;;5115536;27;20493;-77
2021/07/29 08:58:59;;;;;;;;;;;18.20;99.90;;;;;;5129899;27;20031;-76
2021/07/29 09:01:43;;;;;;;4.63;2.60;;;18.10;99.90;;;;;;5128680;27;19926;-76
2021/07/29 09:04:14;;;;;;;8.70;3.00;;;18.30;99.90;;;;;;5129670;27;20058;-76
2021/07/29 09:07:02;;;;;;;5.75;2.80;;;18.60;99.90;;;;;;5123542;27;20493;-77
2021/07/29 09:09:48;;;;;;;4.30;2.70;;;18.90;99.90;;;;;;5115479;27;20480;-79
2021/07/29 09:12:22;;;;;;;7.78;3.28;;;19.20;99.90;;;;;;5129973;27;20095;-79
2021/07/29 09:14:49;;;;;;;8.52;2.83;;;19.00;99.90;;;;;;5129903;27;20035;-78
2021/07/29 09:17:16;;;;;;;6.18;3.22;;;18.80;99.90;;;;;;5129154;27;20063;-78
2021/07/29 09:19:53;;;;;;;8.38;2.92;;;18.60;99.90;;;;;;5128127;27;20047;-78
2021/07/29 09:22:28;;;;;;;8.38;3.33;;;18.40;99.90;;;;;;5127800;27;20503;-79
2021/07/29 09:25:00;;;;;;;7.07;3.20;;;18.20;99.90;;;;;;5112762;27;20092;-77
2021/07/29 09:27:51;;;;;;;6.53;2.72;;;18.20;99.90;;;;;;5128952;27;20794;-78
2021/07/29 09:30:24;;;;;;;7.85;3.20;;;18.10;99.90;;;;;;5124878;27;20373;-82
2021/07/29 09:33:00;;;;;;;5.72;2.67;;;17.80;99.90;;;;;;5108387;27;20070;-82
2021/07/29 09:35:46;;;;;;;6.63;3.15;;;17.30;99.90;;;;;;5116417;27;20039;-80
2021/07/29 09:38:26;;;;;;;7.60;2.67;;;16.90;99.90;;;;;;5119294;27;20043;-81
2021/07/29 09:41:03;;;;;;;8.27;3.47;;;17.10;99.90;;;;;;5127963;27;20080;-80
2021/07/29 09:43:34;;;;;;;6.43;3.05;;;17.40;99.90;;;;;;5114950;27;20407;-80
2021/07/29 09:46:04;;;;;;;7.95;3.20;;;17.50;99.90;;;;;;5125397;27;20476;-80
2021/07/29 09:48:30;;;;;;;4.20;2.90;;;17.80;99.90;;;;;;5127285;27;20035;-81
2021/07/29 09:50:59;;;;;;;8.00;3.88;;;18.30;99.90;;;;;;5129606;27;20076;-80
2021/07/29 09:53:33;;;;;;;4.78;2.70;;;18.50;99.90;;;;;;5121283;27;20074;-81
2021/07/29 09:55:59;;;;;;;8.70;3.45;;;18.80;99.90;;;;;;5127011;27;20035;-80
2021/07/29 09:58:24;;;;;;;;;;;19.10;99.90;;;;;;5130656;27;20035;-81
2021/07/29 10:00:50;;;;;;;6.15;2.55;;;19.50;99.90;;;;;;5132280;27;19919;-80
2021/07/29 10:03:20;;;;;;;;;;;19.60;99.90;;;;;;5130477;27;20142;-80
2021/07/29 10:06:06;;;;;;;5.00;2.25;;;19.50;99.90;;;;;;5129569;27;19984;-81
2021/07/29 10:08:34;;;;;;;7.05;2.58;;;19.30;99.90;;;;;;5123035;27;20038;-80
2021/07/29 10:11:03;;;;;;;5.10;2.10;;;19.50;99.90;;;;;;5131236;27;20460;-79
2021/07/29 10:13:36;;;;;;;4.80;1.80;;;19.60;99.90;;;;;;5126076;27;20031;-80
2021/07/29 10:16:03;;;;;;;5.03;2.28;;;19.50;99.90;;;;;;5126733;28;20357;-80
2021/07/29 10:18:51;;;;;;;4.25;2.00;;;19.50;99.90;;;;;;5111994;28;20460;-81
2021/07/29 10:21:21;;;;;;;3.33;1.58;;;19.60;99.90;;;;;;5118571;28;20040;-82
2021/07/29 10:23:52;;;;;;;3.80;1.65;;;19.70;94.50;;;;;;5124412;28;20047;-81
2021/07/29 10:26:18;;;;;;;3.40;1.45;;;19.40;97.20;;;;;;5124548;28;20042;-81
2021/07/29 10:28:44;;;;;;;;;;;19.40;96.70;;;;;;5106410;28;20436;-79
2021/07/29 10:31:12;;;;;;;5.57;2.00;;;19.30;97.30;;;;;;5117242;27;19926;-80
2021/07/29 10:33:39;;;;;;;6.93;1.90;;;19.30;99.00;;;;;;5119859;28;20496;-82
2021/07/29 10:36:05;;;;;;;3.72;1.80;;;19.20;98.80;;;;;;5115015;28;20481;-81
2021/07/29 10:38:51;;;;;;;4.65;1.80;;;19.20;99.90;;;;;;5124338;28;20118;-81
2021/07/29 10:41:22;;;;;;;3.72;1.75;;;19.40;98.20;;;;;;5123307;28;20135;-80
2021/07/29 10:43:48;;;;;;;4.65;1.98;;;19.20;99.70;;;;;;5119935;28;20049;-82
2021/07/29 10:46:14;;;;;;;;;;;19.00;99.90;;;;;;5118100;28;20150;-80
2021/07/29 10:48:47;;;;;;;4.13;1.80;;;18.80;99.90;;;;;;5123043;28;20034;-79
2021/07/29 10:51:19;;;;;;;5.90;1.83;;;18.60;99.90;;;;;;5125153;28;20757;-81
2021/07/29 10:53:56;;;;;;;5.60;2.08;;;18.50;99.90;;;;;;5113983;27;20043;-80
2021/07/29 10:56:24;;;;;;;4.20;1.83;;;18.70;99.90;;;;;;5128010;28;20039;-80
2021/07/29 10:58:51;;;;;;;3.03;1.88;;;19.00;99.90;;;;;;5118403;27;20059;-81
2021/07/29 11:01:18;;;;;;;6.72;2.13;;;19.50;99.90;;;;;;5124340;27;20038;-80
2021/07/29 11:03:51;;;;;;;4.95;1.90;;;19.60;98.70;;;;;;5122522;27;20042;-81
2021/07/29 11:06:40;;;;;;;5.90;1.77;;;19.60;99.90;;;;;;5117769;27;20126;-81
2021/07/29 11:09:10;;;;;;;4.60;1.85;;;19.50;99.90;;;;;;5120927;27;20035;-82
2021/07/29 11:11:37;;;;;;;3.75;2.00;;;19.80;99.90;;;;;;5128150;27;20038;-81
2021/07/29 11:14:03;;;;;;;3.70;2.03;;;19.90;99.90;;;;;;5110505;27;20418;-82
2021/07/29 11:16:30;;;;;;;;;;;19.90;99.90;;;;;;5124478;27;20042;-81
2021/07/29 11:18:58;;;;;;;4.20;2.13;;;19.80;98.00;;;;;;5129209;27;20299;-82
2021/07/29 11:21:25;;;;;;;3.65;2.20;;;19.60;99.20;;;;;;5116386;27;20752;-83
2021/07/29 11:23:51;;;;;;;4.88;1.80;;;19.50;99.90;;;;;;5124371;27;20050;-80
2021/07/29 11:26:17;;;;;;;;;;;19.40;99.90;;;;;;5120297;27;20062;-82
2021/07/29 11:28:43;;;;;;;4.80;2.00;;;19.70;99.90;;;;;;5131357;27;19941;-82
2021/07/29 11:31:09;;;;;;;5.30;2.00;;;19.90;99.90;;;;;;5131307;27;20051;-81
2021/07/29 11:33:36;;;;;;;3.95;1.80;;;20.10;99.90;;;;;;5122736;27;20035;-82
2021/07/29 11:36:09;;;;;;;3.33;2.00;;;20.30;98.80;;;;;;5131768;27;20035;-82
2021/07/29 11:38:35;;;;;;;7.53;2.20;;;20.40;96.70;;;;;;5131516;27;20042;-81
2021/07/29 11:41:03;;;;;;;5.15;2.10;;;20.40;97.50;;;;;;5130328;27;20768;-80
2021/07/29 11:43:31;;;;;;;5.35;2.40;;;20.60;95.00;;;;;;5131424;27;20098;-82
2021/07/29 11:46:12;;;;;;;3.85;1.70;;;20.60;91.60;;;;;;5132781;27;20051;-80
2021/07/29 11:48:38;;;;;;;5.05;2.13;;;20.40;92.20;;;;;;5127216;27;20031;-80
2021/07/29 11:51:17;;;;;;;3.42;1.88;;;20.20;94.60;;;;;;5118871;27;20474;-82
2021/07/29 11:53:44;;;;;;;4.90;2.15;;;20.30;95.30;;;;;;5122752;27;20036;-79
2021/07/29 11:56:13;;;;;;;5.03;1.90;;;20.20;96.00;;;;;;5123800;27;20078;-78
2021/07/29 11:58:40;;;;;;;4.10;1.70;;;20.20;98.40;;;;;;5127583;27;20035;-79
2021/07/29 12:01:13;;;;;;;3.63;2.10;;;20.40;93.60;;;;;;5123878;27;20040;-80
2021/07/29 12:03:47;;;;;;;5.88;2.10;;;20.30;92.70;;;;;;5126660;27;20519;-80
2021/07/29 12:06:16;;;;;;;4.25;1.90;;;20.10;93.80;;;;;;5126170;27;20047;-80
2021/07/29 12:08:44;;;;;;;4.57;2.00;;;20.10;93.80;;;;;;5127501;27;20066;-80
2021/07/29 12:11:10;;;;;;;4.65;1.95;;;20.00;95.60;;;;;;5126076;27;20063;-79
2021/07/29 12:13:44;;;;;;;4.30;1.90;;;20.10;95.80;;;;;;5120025;27;20055;-79
2021/07/29 12:16:10;;;;;;;5.55;2.00;;;20.40;96.50;;;;;;5128743;27;20047;-80
2021/07/29 12:18:37;;;;;;;4.80;2.20;;;20.90;93.00;;;;;;5126773;27;20472;-80
2021/07/29 12:21:05;;;;;;;5.43;2.05;;;20.90;91.00;;;;;;5119735;27;20031;-80
2021/07/29 12:23:32;;;;;;;5.47;2.30;;;20.80;90.50;;;;;;5126717;27;20063;-81
2021/07/29 12:26:14;;;;;;;5.00;2.00;;;20.50;92.30;;;;;;5119589;27;20039;-79
2021/07/29 12:28:43;;;;;;;6.22;2.25;;;20.30;93.70;;;;;;5130845;27;20104;-79
2021/07/29 12:31:27;;;;;;;6.80;2.47;;;20.40;95.90;;;;;;5119895;27;20042;-81
2021/07/29 12:33:54;;;;;;;4.28;1.90;;;20.70;95.10;;;;;;5116423;27;20038;-81
2021/07/29 12:36:21;;;;;;;6.65;2.40;;;20.90;92.90;;;;;;5126062;27;20114;-79
2021/07/29 12:39:02;;;;;;;4.78;2.28;;;21.10;92.00;;;;;;5120951;27;20045;-80
2021/07/29 12:41:31;;;;;;;5.40;2.33;;;21.30;91.20;;;;;;5111053;27;20425;-81
2021/07/29 12:44:07;;;;;;;3.53;2.00;;;21.30;92.70;;;;;;5120299;27;20055;-82
2021/07/29 12:46:34;;;;;;;4.88;2.10;;;21.70;86.50;;;;;;5112232;27;20028;-79
2021/07/29 12:49:00;;;;;;;4.43;1.98;;;21.70;86.60;;;;;;5111115;27;20035;-79
2021/07/29 12:51:52;;;;;;;5.20;1.88;;;21.80;88.70;;;;;;5117950;27;20039;-82
2021/07/29 12:54:20;;;;;;;3.05;2.00;;;21.60;85.90;;;;;;5129814;27;20054;-79
2021/07/29 12:57:05;;;;;;;4.25;2.13;;;21.40;86.60;;;;;;5113750;27;20051;-80
2021/07/29 12:59:31;;;;;;;4.03;1.98;;;21.20;86.90;;;;;;5119574;27;20127;-81
2021/07/29 13:01:56;;;;;;;4.00;1.60;;;21.40;83.20;;;;;;5116591;27;20040;-81